createdAt,value
2023-01-07T00:01:37.147Z,33.30
2023-01-07T00:04:07.017Z,32.60
2023-01-07T00:06:36.289Z,31.90
2023-01-07T00:09:04.711Z,33.90
2023-01-07T00:11:34.252Z,33.60
2023-01-07T00:14:02.507Z,33.80
2023-01-07T00:16:31.517Z,34.70
2023-01-07T00:18:59.945Z,35.60
2023-01-07T00:21:28.528Z,33.40
2023-01-07T00:23:58.995Z,32.50
2023-01-07T00:26:27.918Z,34.30
2023-01-07T00:28:55.881Z,36.00
2023-01-07T00:31:25.065Z,40.70
2023-01-07T00:34:07.055Z,40.30
2023-01-07T00:36:35.748Z,54.10
2023-01-07T00:39:05.937Z,49.80
2023-01-07T00:41:33.016Z,53.60
2023-01-07T00:44:00.358Z,54.60
2023-01-07T00:46:27.662Z,49.70
2023-01-07T00:48:54.825Z,55.10
2023-01-07T00:51:21.980Z,57.00
2023-01-07T00:53:49.210Z,56.60
2023-01-07T00:56:17.867Z,62.30
2023-01-07T00:58:45.359Z,58.90
2023-01-07T01:01:14.128Z,57.70
2023-01-07T01:03:42.097Z,53.50
2023-01-07T01:06:13.604Z,59.10
2023-01-07T01:08:41.752Z,53.10
2023-01-07T01:11:11.503Z,57.20
2023-01-07T01:13:39.236Z,58.40
2023-01-07T01:16:11.539Z,51.70
2023-01-07T01:18:38.938Z,50.40
2023-01-07T01:21:08.110Z,50.70
2023-01-07T01:23:35.127Z,58.60
2023-01-07T01:26:07.923Z,57.90
2023-01-07T01:28:35.653Z,58.70
2023-01-07T01:31:03.391Z,56.70
2023-01-07T01:33:39.333Z,56.70
2023-01-07T01:36:10.407Z,55.10
2023-01-07T01:38:37.789Z,57.50
2023-01-07T01:41:05.068Z,53.90
2023-01-07T01:43:37.656Z,51.20
2023-01-07T01:46:07.442Z,55.20
2023-01-07T01:48:37.946Z,60.40
2023-01-07T01:51:05.760Z,57.10
2023-01-07T01:53:36.472Z,60.40
2023-01-07T01:56:08.468Z,56.00
2023-01-07T01:58:39.309Z,67.70
2023-01-07T02:01:07.194Z,68.60
2023-01-07T02:03:37.670Z,65.40
2023-01-07T02:06:05.068Z,72.90
2023-01-07T02:08:33.077Z,66.00
2023-01-07T02:11:18.265Z,66.40
2023-01-07T02:14:02.467Z,58.30
2023-01-07T02:16:38.006Z,67.90
2023-01-07T02:19:24.512Z,64.00
2023-01-07T02:21:58.783Z,61.40
2023-01-07T02:24:50.290Z,61.80
2023-01-07T02:27:27.059Z,65.90
2023-01-07T02:32:55.139Z,61.10
2023-01-07T02:35:32.682Z,54.80
2023-01-07T02:38:08.973Z,54.70
2023-01-07T02:40:44.805Z,58.20
2023-01-07T02:43:18.124Z,79.50
2023-01-07T02:45:50.707Z,62.90
2023-01-07T02:48:20.951Z,71.50
2023-01-07T02:50:48.171Z,60.20
2023-01-07T02:53:19.342Z,55.50
2023-01-07T02:55:58.581Z,58.10
2023-01-07T02:58:49.807Z,65.00
2023-01-07T03:01:36.155Z,50.90
2023-01-07T03:04:15.617Z,48.60
2023-01-07T03:06:57.477Z,47.30
2023-01-07T03:09:31.954Z,62.50
2023-01-07T03:12:07.048Z,49.20
2023-01-07T03:14:42.062Z,60.20
2023-01-07T03:17:13.653Z,59.60
2023-01-07T03:19:46.285Z,59.60
2023-01-07T03:22:17.092Z,56.20
2023-01-07T03:24:47.933Z,58.70
2023-01-07T03:27:17.873Z,42.60
2023-01-07T03:29:45.158Z,43.00
2023-01-07T03:32:17.514Z,44.10
2023-01-07T03:34:45.837Z,44.40
2023-01-07T03:37:15.513Z,42.00
2023-01-07T03:39:45.647Z,45.80
2023-01-07T03:42:31.718Z,44.80
2023-01-07T03:45:00.106Z,40.30
2023-01-07T03:47:30.689Z,39.10
2023-01-07T03:49:57.854Z,44.70
2023-01-07T03:52:25.045Z,45.50
2023-01-07T03:54:52.410Z,45.70
2023-01-07T03:57:20.053Z,45.90
2023-01-07T03:59:47.193Z,41.00
2023-01-07T04:02:14.497Z,42.30
2023-01-07T04:04:41.831Z,44.90
2023-01-07T04:07:09.682Z,41.30
2023-01-07T04:09:36.657Z,42.10
2023-01-07T04:12:04.771Z,42.30
2023-01-07T04:14:31.899Z,43.90
2023-01-07T04:16:59.699Z,42.50
2023-01-07T04:19:27.213Z,45.80
2023-01-07T04:21:54.502Z,45.80
2023-01-07T04:24:21.574Z,44.10
2023-01-07T04:26:49.029Z,45.90
2023-01-07T04:29:16.428Z,44.70
2023-01-07T04:31:43.424Z,44.20
2023-01-07T04:34:10.494Z,42.70
2023-01-07T04:36:37.748Z,45.00
2023-01-07T04:39:05.563Z,42.70
2023-01-07T04:41:33.072Z,38.40
2023-01-07T04:44:00.127Z,40.20
2023-01-07T04:46:27.211Z,40.50
2023-01-07T04:48:54.517Z,40.30
2023-01-07T04:51:22.417Z,40.40
2023-01-07T04:53:49.641Z,38.20
2023-01-07T04:56:17.646Z,40.80
2023-01-07T04:58:45.822Z,38.00
2023-01-07T05:01:13.589Z,35.10
2023-01-07T05:03:40.919Z,40.10
2023-01-07T05:06:09.566Z,32.00
2023-01-07T05:08:36.928Z,36.20
2023-01-07T05:11:05.336Z,36.70
2023-01-07T05:13:35.408Z,35.30
2023-01-07T05:16:04.021Z,36.50
2023-01-07T05:18:32.700Z,33.90
2023-01-07T05:21:00.018Z,38.00
2023-01-07T05:23:27.160Z,34.40
2023-01-07T05:25:54.346Z,31.40
2023-01-07T05:28:21.474Z,33.10
2023-01-07T05:30:49.089Z,31.80
2023-01-07T05:33:16.122Z,34.80
2023-01-07T05:35:43.384Z,32.00
2023-01-07T05:38:10.678Z,37.40
2023-01-07T05:40:37.946Z,33.70
2023-01-07T05:43:05.232Z,34.20
2023-01-07T05:45:32.329Z,33.70
2023-01-07T05:47:59.289Z,32.40
2023-01-07T05:50:26.468Z,30.20
2023-01-07T05:52:54.783Z,34.50
2023-01-07T05:55:21.858Z,31.90
2023-01-07T05:57:49.088Z,28.70
2023-01-07T06:00:18.641Z,28.80
2023-01-07T06:02:45.942Z,29.80
2023-01-07T06:05:13.494Z,30.10
2023-01-07T06:07:40.634Z,28.90
2023-01-07T06:10:08.626Z,33.40
2023-01-07T06:12:35.804Z,31.20
2023-01-07T06:15:02.679Z,31.90
2023-01-07T06:17:29.838Z,28.50
2023-01-07T06:19:57.105Z,27.90
2023-01-07T06:22:24.014Z,30.80
2023-01-07T06:24:51.007Z,30.50
2023-01-07T06:27:18.236Z,26.30
2023-01-07T06:29:45.248Z,24.60
2023-01-07T06:32:12.627Z,25.60
2023-01-07T06:34:39.659Z,28.10
2023-01-07T06:37:07.064Z,32.90
2023-01-07T06:39:34.131Z,26.20
2023-01-07T06:42:01.177Z,30.00
2023-01-07T06:44:28.289Z,28.90
2023-01-07T06:46:56.376Z,32.40
2023-01-07T06:49:23.597Z,30.30
2023-01-07T06:51:50.550Z,28.10
2023-01-07T06:54:18.097Z,30.80
2023-01-07T06:56:45.124Z,29.00
2023-01-07T06:59:12.819Z,25.90
2023-01-07T07:01:40.335Z,30.70
2023-01-07T07:04:07.646Z,28.00
2023-01-07T07:06:34.619Z,33.30
2023-01-07T07:09:01.639Z,27.10
2023-01-07T07:11:28.693Z,29.50
2023-01-07T07:13:55.714Z,26.60
2023-01-07T07:16:24.246Z,26.40
2023-01-07T07:18:51.606Z,29.40
2023-01-07T07:21:18.675Z,28.50
2023-01-07T07:23:45.860Z,28.80
2023-01-07T07:26:12.988Z,30.40
2023-01-07T07:28:42.861Z,29.90
2023-01-07T07:31:10.546Z,29.30
2023-01-07T07:33:37.653Z,32.90
2023-01-07T07:36:05.023Z,33.30
2023-01-07T07:38:32.005Z,31.10
2023-01-07T07:40:59.885Z,34.10
2023-01-07T07:43:26.950Z,31.50
2023-01-07T07:45:54.024Z,34.10
2023-01-07T07:48:21.454Z,34.50
2023-01-07T07:50:53.032Z,35.10
2023-01-07T07:53:23.033Z,34.60
2023-01-07T07:55:50.188Z,35.40
2023-01-07T07:58:17.215Z,36.80
2023-01-07T08:00:44.393Z,41.40
2023-01-07T08:03:12.820Z,36.00
2023-01-07T08:05:43.305Z,36.70
2023-01-07T08:08:11.702Z,37.40
2023-01-07T08:10:39.361Z,40.50
2023-01-07T08:13:10.283Z,38.40
2023-01-07T08:15:37.672Z,40.00
2023-01-07T08:18:06.726Z,38.30
2023-01-07T08:20:34.473Z,36.80
2023-01-07T08:23:05.152Z,35.20
2023-01-07T08:25:33.563Z,39.10
2023-01-07T08:28:01.674Z,41.70
2023-01-07T08:30:29.191Z,43.40
2023-01-07T08:32:56.778Z,38.10
2023-01-07T08:35:24.496Z,41.80
2023-01-07T08:37:52.072Z,36.60
2023-01-07T08:40:19.255Z,34.20
2023-01-07T08:42:46.244Z,39.80
2023-01-07T08:45:14.467Z,39.90
2023-01-07T08:47:41.450Z,35.00
2023-01-07T08:50:09.427Z,37.30
2023-01-07T08:52:38.185Z,36.70
2023-01-07T08:55:05.410Z,35.20
2023-01-07T08:57:32.363Z,33.40
2023-01-07T08:59:59.631Z,38.90
2023-01-07T09:02:26.975Z,32.10
2023-01-07T09:04:54.473Z,35.90
2023-01-07T09:07:21.761Z,29.90
2023-01-07T09:09:48.926Z,35.00
2023-01-07T09:12:16.143Z,33.20
2023-01-07T09:14:43.357Z,30.50
2023-01-07T09:17:10.575Z,33.00
2023-01-07T09:19:37.505Z,32.20
2023-01-07T09:22:05.257Z,31.80
2023-01-07T09:24:32.269Z,32.70
2023-01-07T09:26:59.238Z,32.40
2023-01-07T09:29:27.080Z,29.20
2023-01-07T09:31:54.177Z,26.40
2023-01-07T09:34:21.626Z,27.80
2023-01-07T09:36:48.932Z,27.00
2023-01-07T09:39:17.322Z,31.40
2023-01-07T09:41:55.541Z,31.40
2023-01-07T09:44:36.109Z,29.00
2023-01-07T09:47:04.605Z,28.60
2023-01-07T09:49:33.633Z,29.50
2023-01-07T09:52:06.007Z,31.60
2023-01-07T09:54:34.945Z,32.00
2023-01-07T09:57:02.427Z,30.80
2023-01-07T09:59:30.609Z,30.40
2023-01-07T10:02:07.610Z,29.00
2023-01-07T10:04:42.982Z,31.60
2023-01-07T10:07:21.898Z,32.10
2023-01-07T10:10:06.662Z,28.20
2023-01-07T10:12:39.855Z,28.30
2023-01-07T10:15:30.933Z,28.50
2023-01-07T10:18:17.527Z,32.30
2023-01-07T10:20:51.987Z,32.70
2023-01-07T10:23:24.228Z,29.90
2023-01-07T10:25:54.773Z,28.40
2023-01-07T10:28:29.959Z,29.20
2023-01-07T10:30:57.187Z,26.80
2023-01-07T10:33:28.675Z,25.60
2023-01-07T10:36:04.817Z,27.70
2023-01-07T10:38:35.541Z,29.50
2023-01-07T10:41:08.671Z,26.90
2023-01-07T10:43:56.914Z,30.20
2023-01-07T10:46:43.507Z,30.40
2023-01-07T10:49:23.746Z,33.30
2023-01-07T10:52:10.926Z,34.90
2023-01-07T10:54:52.654Z,37.90
2023-01-07T10:57:23.134Z,32.40
2023-01-07T10:59:52.826Z,31.10
2023-01-07T11:02:22.997Z,34.50
2023-01-07T11:04:50.576Z,29.80
2023-01-07T11:07:26.363Z,33.60
2023-01-07T11:09:56.245Z,33.60
2023-01-07T11:12:29.218Z,31.20
2023-01-07T11:15:00.167Z,31.00
2023-01-07T11:17:36.115Z,30.80
2023-01-07T11:20:03.428Z,32.50
2023-01-07T11:22:35.647Z,31.80
2023-01-07T11:25:22.937Z,34.80
2023-01-07T11:27:50.251Z,29.10
2023-01-07T11:30:27.159Z,37.60
2023-01-07T11:33:00.699Z,35.50
2023-01-07T11:35:29.225Z,31.10
2023-01-07T11:37:56.817Z,30.00
2023-01-07T11:40:26.686Z,29.60
2023-01-07T11:42:56.629Z,35.00
2023-01-07T11:45:27.010Z,33.80
2023-01-07T11:48:02.101Z,34.90
2023-01-07T11:50:36.240Z,31.00
2023-01-07T11:53:09.057Z,34.60
2023-01-07T11:55:36.227Z,35.00
2023-01-07T11:58:29.278Z,34.90
2023-01-07T12:01:09.563Z,32.10
2023-01-07T12:03:37.927Z,33.60
2023-01-07T12:06:09.893Z,37.80
2023-01-07T12:08:37.866Z,37.50
2023-01-07T12:11:10.004Z,38.00
2023-01-07T12:13:38.035Z,37.80
2023-01-07T12:16:07.590Z,36.90
2023-01-07T12:18:57.605Z,34.60
2023-01-07T12:21:42.499Z,38.20
2023-01-07T12:24:55.489Z,34.50
2023-01-07T12:27:32.910Z,31.40
2023-01-07T12:30:13.973Z,30.60
2023-01-07T12:32:51.354Z,33.20
2023-01-07T12:35:24.541Z,30.80
2023-01-07T12:37:58.738Z,32.30
2023-01-07T12:40:33.841Z,31.60
2023-01-07T12:43:06.876Z,29.80
2023-01-07T12:45:41.398Z,26.10
2023-01-07T12:48:16.967Z,29.10
2023-01-07T12:50:48.641Z,27.70
2023-01-07T12:53:19.868Z,25.50
2023-01-07T12:55:51.142Z,28.20
2023-01-07T12:58:23.536Z,24.10
2023-01-07T13:00:59.318Z,25.60
2023-01-07T13:03:39.334Z,25.90
2023-01-07T13:06:11.483Z,29.90
2023-01-07T13:08:45.295Z,26.90
2023-01-07T13:11:41.392Z,27.60
2023-01-07T13:14:12.161Z,29.50
2023-01-07T13:16:39.488Z,35.20
2023-01-07T13:19:09.655Z,37.70
2023-01-07T13:21:37.659Z,45.40
2023-01-07T13:24:19.614Z,58.50
2023-01-07T13:26:57.813Z,54.60
2023-01-07T13:29:44.080Z,53.20
2023-01-07T13:32:38.923Z,39.10
2023-01-07T13:35:29.122Z,27.20
2023-01-07T13:38:17.148Z,25.60
2023-01-07T13:41:04.153Z,31.80
2023-01-07T13:43:50.612Z,43.40
2023-01-07T13:46:22.171Z,47.70
2023-01-07T13:48:55.779Z,46.10
2023-01-07T13:51:30.433Z,46.70
2023-01-07T13:53:58.100Z,45.80
2023-01-07T13:56:44.890Z,47.80
2023-01-07T14:02:18.556Z,48.90
2023-01-07T14:04:53.270Z,45.10
2023-01-07T14:07:21.400Z,41.50
2023-01-07T14:09:49.642Z,38.80
2023-01-07T14:13:01.830Z,33.10
2023-01-07T14:16:00.741Z,33.00
2023-01-07T14:19:13.900Z,31.60
2023-01-07T14:21:59.493Z,27.70
2023-01-07T14:24:59.612Z,29.70
2023-01-07T14:27:46.827Z,29.60
2023-01-07T14:30:27.711Z,31.90
2023-01-07T14:33:01.450Z,32.30
2023-01-07T14:35:33.690Z,36.90
2023-01-07T14:38:00.833Z,34.70
2023-01-07T14:41:03.073Z,33.60
2023-01-07T14:44:03.687Z,37.10
2023-01-07T14:46:51.886Z,40.90
2023-01-07T14:49:53.896Z,40.00
2023-01-07T14:52:51.224Z,39.90
2023-01-07T14:55:42.792Z,36.20
2023-01-07T14:58:34.773Z,34.10
2023-01-07T15:01:26.079Z,36.10
2023-01-07T15:04:05.338Z,37.80
2023-01-07T15:06:37.209Z,37.90
2023-01-07T15:09:28.004Z,36.10
2023-01-07T15:12:14.831Z,35.90
2023-01-07T15:15:04.317Z,33.40
2023-01-07T15:17:32.133Z,36.70
2023-01-07T15:19:59.660Z,35.70
2023-01-07T15:22:49.778Z,37.30
2023-01-07T15:25:30.161Z,37.00
2023-01-07T15:28:05.768Z,34.60
2023-01-07T15:30:49.007Z,31.80
2023-01-07T15:33:36.040Z,31.40
2023-01-07T15:36:07.845Z,36.10
2023-01-07T15:38:41.620Z,31.90
2023-01-07T15:41:26.110Z,30.80
2023-01-07T15:43:53.731Z,32.40
2023-01-07T15:46:21.538Z,31.20
2023-01-07T15:49:04.197Z,35.50
2023-01-07T15:51:39.708Z,31.00
2023-01-07T15:54:09.059Z,33.80
2023-01-07T15:56:37.929Z,33.80
2023-01-07T15:59:14.704Z,35.80
2023-01-07T16:01:50.876Z,30.90
2023-01-07T16:04:27.802Z,34.10
2023-01-07T16:09:25.240Z,30.70
2023-01-07T16:11:54.689Z,32.50
2023-01-07T16:14:23.778Z,32.10
2023-01-07T16:17:04.652Z,32.90
2023-01-07T16:19:31.826Z,32.00
2023-01-07T16:22:00.993Z,32.10
2023-01-07T16:24:28.662Z,33.10
2023-01-07T16:26:59.384Z,37.70
2023-01-07T16:29:35.401Z,32.10
2023-01-07T16:32:05.109Z,35.10
2023-01-07T16:35:04.533Z,32.30
2023-01-07T16:37:32.285Z,34.80
2023-01-07T16:39:59.819Z,33.10
2023-01-07T16:42:27.541Z,41.80
2023-01-07T16:45:07.060Z,38.40
2023-01-07T16:47:35.368Z,34.80
2023-01-07T16:50:41.888Z,35.80
2023-01-07T16:53:33.648Z,34.10
2023-01-07T16:56:17.524Z,35.40
2023-01-07T16:58:50.263Z,36.50
2023-01-07T17:01:29.952Z,35.10
2023-01-07T17:04:00.986Z,32.90
2023-01-07T17:06:31.499Z,36.20
2023-01-07T17:09:06.097Z,36.40
2023-01-07T17:11:40.651Z,34.90
2023-01-07T17:14:33.372Z,31.40
2023-01-07T17:17:08.927Z,29.90
2023-01-07T17:19:42.282Z,36.20
2023-01-07T17:22:31.758Z,34.90
2023-01-07T17:25:07.176Z,39.90
2023-01-07T17:27:35.781Z,36.40
2023-01-07T17:30:09.067Z,37.90
2023-01-07T17:32:37.806Z,36.80
2023-01-07T17:35:05.952Z,40.10
2023-01-07T17:37:33.346Z,36.00
2023-01-07T17:40:00.392Z,37.70
2023-01-07T17:42:46.987Z,37.50
2023-01-07T17:45:19.620Z,38.90
2023-01-07T17:47:49.489Z,34.20
2023-01-07T17:50:20.411Z,31.70
2023-01-07T17:52:49.740Z,35.00
2023-01-07T17:55:22.925Z,30.20
2023-01-07T17:57:50.090Z,34.00
2023-01-07T18:00:20.879Z,33.50
2023-01-07T18:02:49.128Z,34.20
2023-01-07T18:05:19.176Z,35.10
2023-01-07T18:07:46.176Z,34.40
2023-01-07T18:10:15.279Z,32.00
2023-01-07T18:12:43.624Z,34.30
2023-01-07T18:15:20.500Z,32.20
2023-01-07T18:20:14.596Z,33.10
2023-01-07T18:22:41.919Z,33.80
2023-01-07T18:25:12.759Z,35.00
2023-01-07T18:27:43.057Z,33.90
2023-01-07T18:30:16.409Z,38.90
2023-01-07T18:32:43.945Z,40.80
2023-01-07T18:35:11.524Z,35.20
2023-01-07T18:37:38.657Z,34.60
2023-01-07T18:40:06.425Z,37.20
2023-01-07T18:42:35.053Z,35.20
2023-01-07T18:45:02.597Z,36.80
2023-01-07T18:47:43.179Z,37.10
2023-01-07T18:50:11.257Z,40.80
2023-01-07T18:52:42.880Z,36.30
2023-01-07T18:55:11.505Z,38.10
2023-01-07T18:57:38.767Z,42.10
2023-01-07T19:00:07.271Z,38.10
2023-01-07T19:02:34.364Z,38.20
2023-01-07T19:05:01.688Z,38.70
2023-01-07T19:07:30.352Z,39.70
2023-01-07T19:09:57.397Z,43.80
2023-01-07T19:12:24.427Z,44.40
2023-01-07T19:14:51.660Z,52.00
2023-01-07T19:17:18.651Z,49.90
2023-01-07T19:19:48.730Z,56.70
2023-01-07T19:22:17.385Z,58.70
2023-01-07T19:24:44.692Z,60.80
2023-01-07T19:27:14.861Z,56.20
2023-01-07T19:29:41.987Z,58.70
2023-01-07T19:32:09.300Z,59.70
2023-01-07T19:34:36.365Z,59.50
2023-01-07T19:37:03.591Z,57.60
2023-01-07T19:39:30.779Z,59.80
2023-01-07T19:41:57.881Z,59.20
2023-01-07T19:44:25.094Z,62.50
2023-01-07T19:46:52.348Z,56.40
2023-01-07T19:49:19.406Z,55.80
2023-01-07T19:51:47.881Z,56.20
2023-01-07T19:54:16.806Z,56.10
2023-01-07T19:56:44.781Z,56.00
2023-01-07T19:59:12.615Z,53.00
2023-01-07T20:01:40.705Z,56.20
2023-01-07T20:04:09.290Z,51.80
2023-01-07T20:06:39.850Z,54.30
2023-01-07T20:09:11.072Z,56.70
2023-01-07T20:11:39.009Z,57.00
2023-01-07T20:14:07.225Z,51.40
2023-01-07T20:16:37.124Z,53.70
2023-01-07T20:19:05.491Z,52.10
2023-01-07T20:21:33.127Z,54.70
2023-01-07T20:24:00.627Z,51.70
2023-01-07T20:26:31.705Z,52.30
2023-01-07T20:29:00.253Z,56.80
2023-01-07T20:31:29.568Z,53.90
2023-01-07T20:33:57.669Z,49.30
2023-01-07T20:36:27.499Z,51.60
2023-01-07T20:38:54.951Z,52.20
2023-01-07T20:41:23.930Z,50.30
2023-01-07T20:43:55.961Z,50.10
2023-01-07T20:46:23.534Z,50.40
2023-01-07T20:48:51.373Z,51.10
2023-01-07T20:51:20.212Z,52.50
2023-01-07T20:53:48.147Z,48.90
2023-01-07T20:56:18.532Z,49.10
2023-01-07T20:58:45.959Z,50.30
2023-01-07T21:01:15.261Z,49.70
2023-01-07T21:03:43.573Z,54.00
2023-01-07T21:06:14.830Z,49.70
2023-01-07T21:08:41.888Z,50.40
2023-01-07T21:11:11.219Z,57.80
2023-01-07T21:13:38.346Z,54.60
2023-01-07T21:16:10.034Z,54.90
2023-01-07T21:18:37.895Z,54.00
2023-01-07T21:21:09.654Z,53.70
2023-01-07T21:23:36.683Z,56.90
2023-01-07T21:26:05.809Z,55.30
2023-01-07T21:28:33.112Z,61.10
2023-01-07T21:31:06.130Z,59.00
2023-01-07T21:33:34.350Z,60.20
2023-01-07T21:36:09.613Z,61.50
2023-01-07T21:38:37.175Z,64.50
2023-01-07T21:41:08.545Z,63.70
2023-01-07T21:43:35.507Z,64.10
2023-01-07T21:46:03.973Z,64.30
2023-01-07T21:48:34.496Z,63.80
2023-01-07T21:51:05.944Z,66.30
2023-01-07T21:53:33.972Z,67.50
2023-01-07T21:56:05.839Z,71.30
2023-01-07T21:58:33.413Z,63.10
2023-01-07T22:01:00.468Z,71.60
2023-01-07T22:03:29.409Z,69.00
2023-01-07T22:06:01.646Z,66.70
2023-01-07T22:08:29.713Z,69.50
2023-01-07T22:10:56.682Z,69.00
2023-01-07T22:13:24.607Z,71.10
2023-01-07T22:15:51.942Z,72.10
2023-01-07T22:18:23.079Z,73.10
2023-01-07T22:20:56.868Z,70.40
2023-01-07T22:23:24.137Z,65.60
2023-01-07T22:25:51.221Z,64.20
2023-01-07T22:28:20.705Z,66.00
2023-01-07T22:30:52.861Z,67.00
2023-01-07T22:33:19.969Z,64.20
2023-01-07T22:35:50.898Z,64.10
2023-01-07T22:38:20.283Z,63.30
2023-01-07T22:40:47.378Z,62.80
2023-01-07T22:43:19.024Z,62.50
2023-01-07T22:45:53.526Z,66.50
2023-01-07T22:48:25.122Z,62.40
2023-01-07T22:50:53.436Z,62.90
2023-01-07T22:53:20.760Z,56.40
2023-01-07T22:55:49.598Z,63.90
2023-01-07T22:58:18.377Z,60.00
2023-01-07T23:01:10.353Z,63.40
2023-01-07T23:03:37.764Z,60.80
2023-01-07T23:06:04.930Z,62.80
2023-01-07T23:08:32.061Z,59.60
2023-01-07T23:10:59.394Z,58.00
2023-01-07T23:13:26.431Z,62.20
2023-01-07T23:15:53.449Z,57.70
2023-01-07T23:18:20.591Z,64.50
2023-01-07T23:20:47.566Z,62.30
2023-01-07T23:23:15.478Z,64.70
2023-01-07T23:25:46.806Z,70.50
2023-01-07T23:28:13.772Z,59.50
2023-01-07T23:30:41.244Z,56.90
2023-01-07T23:33:08.788Z,58.10
2023-01-07T23:35:35.835Z,63.10
2023-01-07T23:38:04.083Z,64.70
2023-01-07T23:40:31.467Z,63.10
2023-01-07T23:42:58.476Z,59.90
2023-01-07T23:45:25.670Z,58.40
2023-01-07T23:47:53.579Z,60.70
2023-01-07T23:50:20.509Z,69.50
2023-01-07T23:52:48.038Z,59.10
2023-01-07T23:55:15.073Z,61.90
2023-01-07T23:57:42.131Z,67.30
